sensor_id;sensor_type;location;lat;lon;timestamp;pressure;altitude;pressure_sealevel;temperature;humidity
26719;BME280;14326;50.794;6.060;2022-12-17T00:02:16;100229.53;;;-0.64;100.00
26719;BME280;14326;50.794;6.060;2022-12-17T00:05:01;100214.69;;;-0.65;100.00
26719;BME280;14326;50.794;6.060;2022-12-17T00:07:45;100217.72;;;-0.72;100.00
26719;BME280;14326;50.794;6.060;2022-12-17T00:10:29;100214.13;;;-0.74;100.00
26719;BME280;14326;50.794;6.060;2022-12-17T00:13:17;100209.28;;;-0.68;100.00
26719;BME280;14326;50.794;6.060;2022-12-17T00:16:14;100211.41;;;-0.76;100.00
26719;BME280;14326;50.794;6.060;2022-12-17T00:18:59;100220.88;;;-0.78;100.00
26719;BME280;14326;50.794;6.060;2022-12-17T00:21:44;100219.16;;;-0.77;100.00
26719;BME280;14326;50.794;6.060;2022-12-17T00:24:28;100221.78;;;-0.77;100.00
26719;BME280;14326;50.794;6.060;2022-12-17T00:27:12;100220.06;;;-0.77;100.00
26719;BME280;14326;50.794;6.060;2022-12-17T00:29:57;100226.38;;;-0.73;100.00
26719;BME280;14326;50.794;6.060;2022-12-17T00:32:41;100226.38;;;-0.73;100.00
26719;BME280;14326;50.794;6.060;2022-12-17T00:35:24;100229.09;;;-0.72;100.00
26719;BME280;14326;50.794;6.060;2022-12-17T00:38:14;100224.56;;;-0.74;100.00
26719;BME280;14326;50.794;6.060;2022-12-17T00:40:58;100221.25;;;-0.72;100.00
26719;BME280;14326;50.794;6.060;2022-12-17T00:43:42;100230.00;;;-0.71;100.00
26719;BME280;14326;50.794;6.060;2022-12-17T00:46:26;100235.09;;;-0.73;100.00
26719;BME280;14326;50.794;6.060;2022-12-17T00:49:10;100238.72;;;-0.71;100.00
26719;BME280;14326;50.794;6.060;2022-12-17T00:51:54;100240.22;;;-0.74;100.00
26719;BME280;14326;50.794;6.060;2022-12-17T00:54:39;100249.97;;;-0.72;100.00
26719;BME280;14326;50.794;6.060;2022-12-17T00:57:24;100244.66;;;-0.73;100.00
26719;BME280;14326;50.794;6.060;2022-12-17T01:00:09;100242.31;;;-0.69;100.00
26719;BME280;14326;50.794;6.060;2022-12-17T01:02:53;100243.22;;;-0.68;100.00
26719;BME280;14326;50.794;6.060;2022-12-17T01:05:37;100245.44;;;-0.74;100.00
26719;BME280;14326;50.794;6.060;2022-12-17T01:08:21;100245.44;;;-0.74;100.00
26719;BME280;14326;50.794;6.060;2022-12-17T01:11:07;100253.28;;;-0.74;100.00
26719;BME280;14326;50.794;6.060;2022-12-17T01:13:52;100250.66;;;-0.74;100.00
26719;BME280;14326;50.794;6.060;2022-12-17T01:16:36;100256.00;;;-0.73;100.00
26719;BME280;14326;50.794;6.060;2022-12-17T01:19:20;100253.28;;;-0.74;100.00
26719;BME280;14326;50.794;6.060;2022-12-17T01:22:05;100253.00;;;-0.79;100.00
26719;BME280;14326;50.794;6.060;2022-12-17T01:24:49;100260.34;;;-0.87;100.00
26719;BME280;14326;50.794;6.060;2022-12-17T01:27:34;100263.75;;;-0.88;100.00
26719;BME280;14326;50.794;6.060;2022-12-17T01:30:19;100262.84;;;-0.88;100.00
26719;BME280;14326;50.794;6.060;2022-12-17T01:33:03;100263.75;;;-0.88;100.00
26719;BME280;14326;50.794;6.060;2022-12-17T01:35:47;100266.34;;;-0.88;100.00
26719;BME280;14326;50.794;6.060;2022-12-17T01:38:32;100274.41;;;-0.85;100.00
26719;BME280;14326;50.794;6.060;2022-12-17T01:41:16;100276.22;;;-0.84;100.00
26719;BME280;14326;50.794;6.060;2022-12-17T01:47:20;100285.66;;;-0.86;100.00
26719;BME280;14326;50.794;6.060;2022-12-17T01:50:04;100283.94;;;-0.85;100.00
26719;BME280;14326;50.794;6.060;2022-12-17T01:52:50;100290.56;;;-0.90;100.00
26719;BME280;14326;50.794;6.060;2022-12-17T01:55:38;100294.59;;;-0.95;100.00
26719;BME280;14326;50.794;6.060;2022-12-17T01:58:22;100297.91;;;-0.98;100.00
26719;BME280;14326;50.794;6.060;2022-12-17T02:01:14;100302.03;;;-1.01;100.00
26719;BME280;14326;50.794;6.060;2022-12-17T02:04:00;100296.69;;;-1.03;100.00
26719;BME280;14326;50.794;6.060;2022-12-17T02:06:49;100308.84;;;-1.03;100.00
26719;BME280;14326;50.794;6.060;2022-12-17T02:09:41;100303.63;;;-1.03;100.00
26719;BME280;14326;50.794;6.060;2022-12-17T02:12:36;100298.91;;;-1.09;100.00
26719;BME280;14326;50.794;6.060;2022-12-17T02:15:27;100301.31;;;-1.12;100.00
26719;BME280;14326;50.794;6.060;2022-12-17T02:18:17;100295.28;;;-1.11;100.00
26719;BME280;14326;50.794;6.060;2022-12-17T02:21:09;100294.50;;;-1.10;100.00
26719;BME280;14326;50.794;6.060;2022-12-17T02:23:59;100295.28;;;-1.11;100.00
26719;BME280;14326;50.794;6.060;2022-12-17T02:26:51;100309.13;;;-1.12;100.00
26719;BME280;14326;50.794;6.060;2022-12-17T02:29:38;100303.91;;;-1.12;100.00
26719;BME280;14326;50.794;6.060;2022-12-17T02:32:24;100300.22;;;-1.15;100.00
26719;BME280;14326;50.794;6.060;2022-12-17T02:35:12;100300.22;;;-1.15;100.00
26719;BME280;14326;50.794;6.060;2022-12-17T02:37:57;100300.81;;;-1.19;100.00
26719;BME280;14326;50.794;6.060;2022-12-17T02:40:43;100302.31;;;-1.23;100.00
26719;BME280;14326;50.794;6.060;2022-12-17T02:43:31;100313.16;;;-1.30;100.00
26719;BME280;14326;50.794;6.060;2022-12-17T02:46:30;100309.72;;;-1.29;100.00
26719;BME280;14326;50.794;6.060;2022-12-17T02:49:14;100308.44;;;-1.36;100.00
26719;BME280;14326;50.794;6.060;2022-12-17T02:51:58;100312.66;;;-1.38;100.00
26719;BME280;14326;50.794;6.060;2022-12-17T02:54:41;100318.78;;;-1.37;100.00
26719;BME280;14326;50.794;6.060;2022-12-17T02:57:25;100315.94;;;-1.40;100.00
26719;BME280;14326;50.794;6.060;2022-12-17T03:00:11;100314.44;;;-1.50;100.00
26719;BME280;14326;50.794;6.060;2022-12-17T03:02:56;100326.44;;;-1.52;100.00
26719;BME280;14326;50.794;6.060;2022-12-17T03:05:40;100328.38;;;-1.49;100.00
26719;BME280;14326;50.794;6.060;2022-12-17T03:08:24;100329.59;;;-1.44;100.00
26719;BME280;14326;50.794;6.060;2022-12-17T03:11:08;100333.91;;;-1.45;100.00
26719;BME280;14326;50.794;6.060;2022-12-17T03:13:52;100330.97;;;-1.49;100.00
26719;BME280;14326;50.794;6.060;2022-12-17T03:16:38;100343.00;;;-1.51;100.00
26719;BME280;14326;50.794;6.060;2022-12-17T03:19:22;100333.19;;;-1.55;100.00
26719;BME280;14326;50.794;6.060;2022-12-17T03:22:06;100336.16;;;-1.62;100.00
26719;BME280;14326;50.794;6.060;2022-12-17T03:24:50;100338.34;;;-1.69;100.00
26719;BME280;14326;50.794;6.060;2022-12-17T03:27:35;100340.97;;;-1.69;100.00
26719;BME280;14326;50.794;6.060;2022-12-17T03:30:19;100341.13;;;-1.79;100.00
26719;BME280;14326;50.794;6.060;2022-12-17T03:33:06;100340.47;;;-1.88;100.00
26719;BME280;14326;50.794;6.060;2022-12-17T03:35:51;100342.09;;;-1.90;100.00
26719;BME280;14326;50.794;6.060;2022-12-17T03:38:36;100351.06;;;-1.98;100.00
26719;BME280;14326;50.794;6.060;2022-12-17T03:41:20;100350.97;;;-1.99;100.00
26719;BME280;14326;50.794;6.060;2022-12-17T03:44:04;100348.81;;;-2.05;100.00
26719;BME280;14326;50.794;6.060;2022-12-17T03:46:48;100359.06;;;-2.08;100.00
26719;BME280;14326;50.794;6.060;2022-12-17T03:49:33;100368.69;;;-2.07;100.00
26719;BME280;14326;50.794;6.060;2022-12-17T03:52:18;100358.94;;;-2.10;100.00
26719;BME280;14326;50.794;6.060;2022-12-17T03:55:02;100356.44;;;-2.08;100.00
26719;BME280;14326;50.794;6.060;2022-12-17T03:57:46;100359.06;;;-2.08;100.00
26719;BME280;14326;50.794;6.060;2022-12-17T04:00:30;100356.69;;;-2.17;100.00
26719;BME280;14326;50.794;6.060;2022-12-17T04:03:15;100348.34;;;-2.24;100.00
26719;BME280;14326;50.794;6.060;2022-12-17T04:06:01;100356.84;;;-2.27;100.00
26719;BME280;14326;50.794;6.060;2022-12-17T04:08:45;100354.66;;;-2.21;100.00
26719;BME280;14326;50.794;6.060;2022-12-17T04:11:29;100357.94;;;-2.23;100.00
26719;BME280;14326;50.794;6.060;2022-12-17T04:14:13;100359.66;;;-2.24;100.00
26719;BME280;14326;50.794;6.060;2022-12-17T04:16:57;100368.97;;;-2.27;100.00
26719;BME280;14326;50.794;6.060;2022-12-17T04:19:40;100374.88;;;-2.30;100.00
26719;BME280;14326;50.794;6.060;2022-12-17T04:22:40;100372.25;;;-2.41;100.00
26719;BME280;14326;50.794;6.060;2022-12-17T04:25:25;100374.53;;;-2.46;100.00
26719;BME280;14326;50.794;6.060;2022-12-17T04:28:09;100375.69;;;-2.42;100.00
26719;BME280;14326;50.794;6.060;2022-12-17T04:30:53;100379.41;;;-2.39;100.00
26719;BME280;14326;50.794;6.060;2022-12-17T04:33:38;100387.53;;;-2.34;100.00
26719;BME280;14326;50.794;6.060;2022-12-17T04:36:22;100379.84;;;-2.33;100.00
26719;BME280;14326;50.794;6.060;2022-12-17T04:39:07;100377.03;;;-2.36;100.00
26719;BME280;14326;50.794;6.060;2022-12-17T04:41:51;100390.94;;;-2.35;100.00
26719;BME280;14326;50.794;6.060;2022-12-17T04:44:35;100388.44;;;-2.34;100.00
26719;BME280;14326;50.794;6.060;2022-12-17T04:47:20;100387.91;;;-2.30;100.00
26719;BME280;14326;50.794;6.060;2022-12-17T04:50:04;100388.22;;;-2.25;100.00
26719;BME280;14326;50.794;6.060;2022-12-17T04:52:48;100389.59;;;-2.30;100.00
26719;BME280;14326;50.794;6.060;2022-12-17T04:55:34;100390.94;;;-2.35;100.00
26719;BME280;14326;50.794;6.060;2022-12-17T04:58:18;100400.13;;;-2.40;100.00
26719;BME280;14326;50.794;6.060;2022-12-17T05:01:02;100402.53;;;-2.55;100.00
26719;BME280;14326;50.794;6.060;2022-12-17T05:03:45;100398.25;;;-2.55;100.00
26719;BME280;14326;50.794;6.060;2022-12-17T05:06:30;100403.44;;;-2.55;100.00
26719;BME280;14326;50.794;6.060;2022-12-17T05:09:14;100404.91;;;-2.70;100.00
26719;BME280;14326;50.794;6.060;2022-12-17T05:11:59;100407.50;;;-2.70;100.00
26719;BME280;14326;50.794;6.060;2022-12-17T05:14:43;100404.91;;;-2.70;100.00
26719;BME280;14326;50.794;6.060;2022-12-17T05:17:28;100404.00;;;-2.59;100.00
26719;BME280;14326;50.794;6.060;2022-12-17T05:20:12;100400.59;;;-2.58;100.00
26719;BME280;14326;50.794;6.060;2022-12-17T05:23:03;100405.25;;;-2.54;100.00
26719;BME280;14326;50.794;6.060;2022-12-17T05:25:47;100401.16;;;-2.50;100.00
26719;BME280;14326;50.794;6.060;2022-12-17T05:28:33;100400.72;;;-2.44;100.00
26719;BME280;14326;50.794;6.060;2022-12-17T05:31:17;100400.25;;;-2.51;100.00
26719;BME280;14326;50.794;6.060;2022-12-17T05:34:01;100410.94;;;-2.59;100.00
26719;BME280;14326;50.794;6.060;2022-12-17T05:36:45;100410.25;;;-2.68;100.00
26719;BME280;14326;50.794;6.060;2022-12-17T05:39:29;100411.03;;;-2.69;100.00
26719;BME280;14326;50.794;6.060;2022-12-17T05:42:13;100420.91;;;-2.65;100.00
26719;BME280;14326;50.794;6.060;2022-12-17T05:45:08;100423.84;;;-2.61;100.00
26719;BME280;14326;50.794;6.060;2022-12-17T05:47:56;100419.16;;;-2.65;100.00
26719;BME280;14326;50.794;6.060;2022-12-17T05:50:40;100423.13;;;-2.70;100.00
26719;BME280;14326;50.794;6.060;2022-12-17T05:53:29;100428.47;;;-2.68;100.00
26719;BME280;14326;50.794;6.060;2022-12-17T05:56:13;100425.41;;;-2.63;100.00
26719;BME280;14326;50.794;6.060;2022-12-17T05:58:57;100429.25;;;-2.58;100.00
26719;BME280;14326;50.794;6.060;2022-12-17T06:01:43;100435.16;;;-2.60;100.00
26719;BME280;14326;50.794;6.060;2022-12-17T06:04:27;100443.28;;;-2.56;100.00
26719;BME280;14326;50.794;6.060;2022-12-17T06:07:11;100441.94;;;-2.51;100.00
26719;BME280;14326;50.794;6.060;2022-12-17T06:09:55;100448.97;;;-2.50;100.00
26719;BME280;14326;50.794;6.060;2022-12-17T06:12:39;100456.44;;;-2.42;100.00
26719;BME280;14326;50.794;6.060;2022-12-17T06:15:24;100454.38;;;-2.35;100.00
26719;BME280;14326;50.794;6.060;2022-12-17T06:18:09;100458.91;;;-2.32;100.00
26719;BME280;14326;50.794;6.060;2022-12-17T06:20:53;100454.34;;;-2.23;100.00
26719;BME280;14326;50.794;6.060;2022-12-17T06:23:37;100451.88;;;-2.22;100.00
26719;BME280;14326;50.794;6.060;2022-12-17T06:26:21;100455.38;;;-2.21;100.00
26719;BME280;14326;50.794;6.060;2022-12-17T06:29:05;100456.50;;;-2.18;100.00
26719;BME280;14326;50.794;6.060;2022-12-17T06:31:50;100455.63;;;-2.18;100.00
26719;BME280;14326;50.794;6.060;2022-12-17T06:34:35;100466.81;;;-2.19;100.00
26719;BME280;14326;50.794;6.060;2022-12-17T06:37:19;100453.69;;;-2.21;100.00
26719;BME280;14326;50.794;6.060;2022-12-17T06:40:04;100450.16;;;-2.21;100.00
26719;BME280;14326;50.794;6.060;2022-12-17T06:42:52;100465.22;;;-2.17;100.00
26719;BME280;14326;50.794;6.060;2022-12-17T06:45:36;100462.72;;;-2.16;100.00
26719;BME280;14326;50.794;6.060;2022-12-17T06:48:20;100476.34;;;-2.20;100.00
26719;BME280;14326;50.794;6.060;2022-12-17T06:51:06;100473.72;;;-2.20;100.00
26719;BME280;14326;50.794;6.060;2022-12-17T06:53:50;100472.94;;;-2.19;100.00
26719;BME280;14326;50.794;6.060;2022-12-17T06:56:34;100478.16;;;-2.19;100.00
26719;BME280;14326;50.794;6.060;2022-12-17T06:59:18;100477.00;;;-2.22;100.00
26719;BME280;14326;50.794;6.060;2022-12-17T07:02:02;100479.72;;;-2.21;100.00
26719;BME280;14326;50.794;6.060;2022-12-17T07:04:46;100485.16;;;-2.29;100.00
26719;BME280;14326;50.794;6.060;2022-12-17T07:07:32;100483.38;;;-2.30;100.00
26719;BME280;14326;50.794;6.060;2022-12-17T07:10:16;100485.28;;;-2.28;100.00
26719;BME280;14326;50.794;6.060;2022-12-17T07:13:04;100485.06;;;-2.31;100.00
26719;BME280;14326;50.794;6.060;2022-12-17T07:15:48;100494.59;;;-2.31;100.00
26719;BME280;14326;50.794;6.060;2022-12-17T07:18:33;100489.13;;;-2.34;100.00
26719;BME280;14326;50.794;6.060;2022-12-17T07:21:18;100500.78;;;-2.29;100.00
26719;BME280;14326;50.794;6.060;2022-12-17T07:24:03;100500.59;;;-2.32;100.00
26719;BME280;14326;50.794;6.060;2022-12-17T07:26:47;100505.00;;;-2.31;100.00
26719;BME280;14326;50.794;6.060;2022-12-17T07:29:32;100512.03;;;-2.30;100.00
26719;BME280;14326;50.794;6.060;2022-12-17T07:32:16;100506.38;;;-2.36;100.00
26719;BME280;14326;50.794;6.060;2022-12-17T07:35:00;100516.41;;;-2.41;100.00
26719;BME280;14326;50.794;6.060;2022-12-17T07:37:45;100508.53;;;-2.42;100.00
26719;BME280;14326;50.794;6.060;2022-12-17T07:40:30;100522.34;;;-2.43;100.00
26719;BME280;14326;50.794;6.060;2022-12-17T07:43:14;100511.00;;;-2.56;100.00
26719;BME280;14326;50.794;6.060;2022-12-17T07:45:59;100511.13;;;-2.54;100.00
26719;BME280;14326;50.794;6.060;2022-12-17T07:48:44;100516.22;;;-2.56;100.00
26719;BME280;14326;50.794;6.060;2022-12-17T07:51:28;100518.69;;;-2.57;100.00
26719;BME280;14326;50.794;6.060;2022-12-17T07:54:12;100526.38;;;-2.59;100.00
26719;BME280;14326;50.794;6.060;2022-12-17T07:56:57;100538.28;;;-2.62;100.00
26719;BME280;14326;50.794;6.060;2022-12-17T07:59:42;100542.44;;;-2.64;100.00
26719;BME280;14326;50.794;6.060;2022-12-17T08:02:26;100542.91;;;-2.58;100.00
26719;BME280;14326;50.794;6.060;2022-12-17T08:05:10;100545.88;;;-2.54;100.00
26719;BME280;14326;50.794;6.060;2022-12-17T08:07:54;100546.09;;;-2.62;100.00
26719;BME280;14326;50.794;6.060;2022-12-17T08:10:38;100554.56;;;-2.65;100.00
26719;BME280;14326;50.794;6.060;2022-12-17T08:13:24;100550.16;;;-2.66;100.00
26719;BME280;14326;50.794;6.060;2022-12-17T08:16:19;100562.81;;;-2.59;100.00
26719;BME280;14326;50.794;6.060;2022-12-17T08:19:03;100573.81;;;-2.63;100.00
26719;BME280;14326;50.794;6.060;2022-12-17T08:21:48;100566.91;;;-2.62;100.00
26719;BME280;14326;50.794;6.060;2022-12-17T08:24:32;100558.75;;;-2.67;100.00
26719;BME280;14326;50.794;6.060;2022-12-17T08:27:16;100555.91;;;-2.70;100.00
26719;BME280;14326;50.794;6.060;2022-12-17T08:30:03;100567.56;;;-2.65;100.00
26719;BME280;14326;50.794;6.060;2022-12-17T08:32:47;100557.34;;;-2.85;100.00
26719;BME280;14326;50.794;6.060;2022-12-17T08:35:32;100575.75;;;-2.94;100.00
26719;BME280;14326;50.794;6.060;2022-12-17T08:38:16;100588.97;;;-3.02;100.00
26719;BME280;14326;50.794;6.060;2022-12-17T08:41:00;100588.06;;;-3.03;100.00
26719;BME280;14326;50.794;6.060;2022-12-17T08:43:45;100591.03;;;-2.98;100.00
26719;BME280;14326;50.794;6.060;2022-12-17T08:46:30;100589.19;;;-2.99;100.00
26719;BME280;14326;50.794;6.060;2022-12-17T08:49:15;100585.47;;;-3.03;100.00
26719;BME280;14326;50.794;6.060;2022-12-17T08:52:02;100584.78;;;-3.00;100.00
26719;BME280;14326;50.794;6.060;2022-12-17T08:54:48;100580.25;;;-3.03;100.00
26719;BME280;14326;50.794;6.060;2022-12-17T08:57:32;100580.75;;;-2.97;100.00
26719;BME280;14326;50.794;6.060;2022-12-17T09:00:17;100580.63;;;-2.98;100.00
26719;BME280;14326;50.794;6.060;2022-12-17T09:03:03;100588.19;;;-3.01;100.00
26719;BME280;14326;50.794;6.060;2022-12-17T09:05:47;100588.97;;;-3.02;100.00
26719;BME280;14326;50.794;6.060;2022-12-17T09:08:32;100590.31;;;-3.07;100.00
26719;BME280;14326;50.794;6.060;2022-12-17T09:11:16;100583.78;;;-3.02;100.00
26719;BME280;14326;50.794;6.060;2022-12-17T09:14:00;100586.28;;;-2.92;100.00
26719;BME280;14326;50.794;6.060;2022-12-17T09:16:47;100585.41;;;-2.81;100.00
26719;BME280;14326;50.794;6.060;2022-12-17T09:19:32;100600.03;;;-2.83;100.00
26719;BME280;14326;50.794;6.060;2022-12-17T09:22:16;100608.53;;;-2.74;100.00
26719;BME280;14326;50.794;6.060;2022-12-17T09:25:01;100606.97;;;-2.72;100.00
26719;BME280;14326;50.794;6.060;2022-12-17T09:27:47;100607.63;;;-2.74;100.00
26719;BME280;14326;50.794;6.060;2022-12-17T09:30:31;100605.81;;;-2.75;100.00
26719;BME280;14326;50.794;6.060;2022-12-17T09:33:16;100610.34;;;-2.73;100.00
26719;BME280;14326;50.794;6.060;2022-12-17T09:36:03;100609.88;;;-2.79;100.00
26719;BME280;14326;50.794;6.060;2022-12-17T09:38:48;100605.66;;;-2.89;100.00
26719;BME280;14326;50.794;6.060;2022-12-17T09:41:41;100608.75;;;-2.71;100.00
26719;BME280;14326;50.794;6.060;2022-12-17T09:44:35;100604.50;;;-2.59;100.00
26719;BME280;14326;50.794;6.060;2022-12-17T09:47:30;100605.53;;;-2.57;100.00
26719;BME280;14326;50.794;6.060;2022-12-17T09:50:19;100613.81;;;-2.51;100.00
26719;BME280;14326;50.794;6.060;2022-12-17T09:53:11;100617.66;;;-2.45;100.00
26719;BME280;14326;50.794;6.060;2022-12-17T09:55:59;100612.78;;;-2.41;100.00
26719;BME280;14326;50.794;6.060;2022-12-17T09:58:43;100616.31;;;-2.40;100.00
26719;BME280;14326;50.794;6.060;2022-12-17T10:01:32;100620.53;;;-2.42;100.00
26719;BME280;14326;50.794;6.060;2022-12-17T10:04:19;100622.66;;;-2.49;100.00
26719;BME280;14326;50.794;6.060;2022-12-17T10:07:09;100636.81;;;-2.45;100.00
26719;BME280;14326;50.794;6.060;2022-12-17T10:09:57;100640.53;;;-2.41;100.00
26719;BME280;14326;50.794;6.060;2022-12-17T10:12:50;100643.41;;;-2.38;100.00
26719;BME280;14326;50.794;6.060;2022-12-17T10:15:34;100645.09;;;-2.39;100.00
26719;BME280;14326;50.794;6.060;2022-12-17T10:18:19;100638.78;;;-2.31;100.00
26719;BME280;14326;50.794;6.060;2022-12-17T10:21:05;100636.25;;;-2.29;100.00
26719;BME280;14326;50.794;6.060;2022-12-17T10:23:49;100633.44;;;-2.32;100.00
26719;BME280;14326;50.794;6.060;2022-12-17T10:26:35;100635.25;;;-2.31;100.00
26719;BME280;14326;50.794;6.060;2022-12-17T10:29:22;100636.97;;;-2.32;100.00
26719;BME280;14326;50.794;6.060;2022-12-17T10:32:15;100639.00;;;-2.28;100.00
26719;BME280;14326;50.794;6.060;2022-12-17T10:35:06;100641.38;;;-2.31;100.00
26719;BME280;14326;50.794;6.060;2022-12-17T10:37:52;100645.34;;;-2.36;100.00
26719;BME280;14326;50.794;6.060;2022-12-17T10:40:36;100646.56;;;-2.42;100.00
26719;BME280;14326;50.794;6.060;2022-12-17T10:43:25;100645.88;;;-2.40;100.00
26719;BME280;14326;50.794;6.060;2022-12-17T10:46:09;100647.81;;;-2.37;100.00
26719;BME280;14326;50.794;6.060;2022-12-17T10:49:03;100657.50;;;-2.47;100.00
26719;BME280;14326;50.794;6.060;2022-12-17T10:51:47;100658.88;;;-2.52;100.00
26719;BME280;14326;50.794;6.060;2022-12-17T10:54:33;100654.56;;;-2.51;100.00
26719;BME280;14326;50.794;6.060;2022-12-17T10:57:23;100661.28;;;-2.43;100.00
26719;BME280;14326;50.794;6.060;2022-12-17T11:00:25;100662.97;;;-2.43;100.00
26719;BME280;14326;50.794;6.060;2022-12-17T11:03:31;100665.00;;;-2.39;100.00
26719;BME280;14326;50.794;6.060;2022-12-17T11:06:21;100665.47;;;-2.45;100.00
26719;BME280;14326;50.794;6.060;2022-12-17T11:09:13;100661.81;;;-2.47;100.00
26719;BME280;14326;50.794;6.060;2022-12-17T11:12:03;100655.94;;;-2.44;100.00
26719;BME280;14326;50.794;6.060;2022-12-17T11:14:51;100655.63;;;-2.37;100.00
26719;BME280;14326;50.794;6.060;2022-12-17T11:17:39;100649.97;;;-2.32;100.00
26719;BME280;14326;50.794;6.060;2022-12-17T11:20:28;100653.72;;;-2.28;100.00
26719;BME280;14326;50.794;6.060;2022-12-17T11:23:19;100656.66;;;-2.24;100.00
26719;BME280;14326;50.794;6.060;2022-12-17T11:26:07;100661.22;;;-2.21;100.00
26719;BME280;14326;50.794;6.060;2022-12-17T11:28:53;100658.94;;;-2.17;100.00
26719;BME280;14326;50.794;6.060;2022-12-17T11:31:54;100653.97;;;-2.14;100.00
26719;BME280;14326;50.794;6.060;2022-12-17T11:35:03;100658.50;;;-2.11;100.00
26719;BME280;14326;50.794;6.060;2022-12-17T11:37:56;100654.66;;;-2.04;100.00
26719;BME280;14326;50.794;6.060;2022-12-17T11:40:46;100650.34;;;-2.04;100.00
26719;BME280;14326;50.794;6.060;2022-12-17T11:43:38;100645.47;;;-1.99;100.00
26719;BME280;14326;50.794;6.060;2022-12-17T11:46:37;100645.84;;;-1.95;100.00
26719;BME280;14326;50.794;6.060;2022-12-17T11:49:31;100645.16;;;-1.92;100.00
26719;BME280;14326;50.794;6.060;2022-12-17T11:52:26;100648.22;;;-1.86;100.00
26719;BME280;14326;50.794;6.060;2022-12-17T11:55:16;100641.53;;;-1.83;100.00
26719;BME280;14326;50.794;6.060;2022-12-17T11:58:04;100642.78;;;-1.78;100.00
26719;BME280;14326;50.794;6.060;2022-12-17T12:00:59;100650.16;;;-1.72;100.00
26719;BME280;14326;50.794;6.060;2022-12-17T12:03:56;100639.38;;;-1.65;100.00
26719;BME280;14326;50.794;6.060;2022-12-17T12:06:48;100631.88;;;-1.60;100.00
26719;BME280;14326;50.794;6.060;2022-12-17T12:09:44;100639.00;;;-1.58;100.00
26719;BME280;14326;50.794;6.060;2022-12-17T12:12:42;100632.34;;;-1.54;100.00
26719;BME280;14326;50.794;6.060;2022-12-17T12:15:32;100632.53;;;-1.51;100.00
26719;BME280;14326;50.794;6.060;2022-12-17T12:18:19;100636.50;;;-1.45;100.00
26719;BME280;14326;50.794;6.060;2022-12-17T12:21:18;100639.69;;;-1.37;100.00
26719;BME280;14326;50.794;6.060;2022-12-17T12:24:18;100625.13;;;-1.34;100.00
26719;BME280;14326;50.794;6.060;2022-12-17T12:27:14;100625.47;;;-1.29;100.00
26719;BME280;14326;50.794;6.060;2022-12-17T12:30:13;100621.72;;;-1.21;100.00
26719;BME280;14326;50.794;6.060;2022-12-17T12:33:04;100616.94;;;-1.15;100.00
26719;BME280;14326;50.794;6.060;2022-12-17T12:35:58;100615.78;;;-1.07;100.00
26719;BME280;14326;50.794;6.060;2022-12-17T12:38:50;100611.00;;;-1.01;100.00
26719;BME280;14326;50.794;6.060;2022-12-17T12:41:42;100617.06;;;-0.89;100.00
26719;BME280;14326;50.794;6.060;2022-12-17T12:44:33;100608.66;;;-0.85;99.81
26719;BME280;14326;50.794;6.060;2022-12-17T12:47:24;100610.66;;;-0.80;99.62
26719;BME280;14326;50.794;6.060;2022-12-17T12:50:18;100602.03;;;-0.79;99.71
26719;BME280;14326;50.794;6.060;2022-12-17T12:53:08;100596.91;;;-0.78;99.70
26719;BME280;14326;50.794;6.060;2022-12-17T12:55:54;100602.22;;;-0.76;99.53
26719;BME280;14326;50.794;6.060;2022-12-17T12:58:38;100601.53;;;-0.74;99.38
26719;BME280;14326;50.794;6.060;2022-12-17T13:01:32;100603.56;;;-0.70;99.00
26719;BME280;14326;50.794;6.060;2022-12-17T13:04:27;100597.44;;;-0.70;99.11
26719;BME280;14326;50.794;6.060;2022-12-17T13:07:21;100595.84;;;-0.68;98.98
26719;BME280;14326;50.794;6.060;2022-12-17T13:09:49;100588.13;;;-0.67;98.64
26719;BME280;14326;50.794;6.060;2022-12-17T13:12:21;100591.81;;;-0.63;98.33
26719;BME280;14326;50.794;6.060;2022-12-17T13:14:52;100586.72;;;-0.62;98.00
26719;BME280;14326;50.794;6.060;2022-12-17T13:17:31;100580.50;;;-0.51;97.20
26719;BME280;14326;50.794;6.060;2022-12-17T13:22:48;100575.59;;;-0.46;97.41
26719;BME280;14326;50.794;6.060;2022-12-17T13:25:18;100579.22;;;-0.44;97.40
26719;BME280;14326;50.794;6.060;2022-12-17T13:27:45;100567.75;;;-0.46;97.07
26719;BME280;14326;50.794;6.060;2022-12-17T13:30:29;100575.03;;;-0.42;96.79
26719;BME280;14326;50.794;6.060;2022-12-17T13:33:16;100581.22;;;-0.40;96.97
26719;BME280;14326;50.794;6.060;2022-12-17T13:35:56;100573.72;;;-0.35;96.19
26719;BME280;14326;50.794;6.060;2022-12-17T13:38:32;100559.94;;;-0.33;95.52
26719;BME280;14326;50.794;6.060;2022-12-17T13:41:05;100563.56;;;-0.31;95.29
26719;BME280;14326;50.794;6.060;2022-12-17T13:43:38;100565.59;;;-0.27;94.52
26719;BME280;14326;50.794;6.060;2022-12-17T13:46:16;100561.66;;;-0.20;93.94
26719;BME280;14326;50.794;6.060;2022-12-17T13:48:51;100572.81;;;-0.23;93.67
26719;BME280;14326;50.794;6.060;2022-12-17T13:51:19;100578.88;;;-0.24;93.56
26719;BME280;14326;50.794;6.060;2022-12-17T13:53:50;100579.75;;;-0.23;93.63
26719;BME280;14326;50.794;6.060;2022-12-17T13:56:21;100575.34;;;-0.24;93.90
26719;BME280;14326;50.794;6.060;2022-12-17T13:58:50;100584.00;;;-0.25;93.85
26719;BME280;14326;50.794;6.060;2022-12-17T14:01:17;100575.25;;;-0.26;93.70
26719;BME280;14326;50.794;6.060;2022-12-17T14:03:51;100576.94;;;-0.26;93.37
26719;BME280;14326;50.794;6.060;2022-12-17T14:06:19;100579.66;;;-0.25;92.85
26719;BME280;14326;50.794;6.060;2022-12-17T14:08:47;100572.25;;;-0.19;92.44
26719;BME280;14326;50.794;6.060;2022-12-17T14:11:15;100575.16;;;-0.14;92.14
26719;BME280;14326;50.794;6.060;2022-12-17T14:14:00;100572.44;;;-0.16;92.17
26719;BME280;14326;50.794;6.060;2022-12-17T14:16:28;100582.69;;;-0.19;92.28
26719;BME280;14326;50.794;6.060;2022-12-17T14:18:57;100588.72;;;-0.20;92.35
26719;BME280;14326;50.794;6.060;2022-12-17T14:21:25;100583.38;;;-0.21;92.30